| Pilot: | GLD1765 Sandra V. | Aircraft: | Cessna | Distance: | 130NM |
| From: | SBMT | To: | SBMT | Duration: | 1.47 |
| Validation: | Valid | Tipo: | Charter | Tail Number: | PT-GLD |
| ZFW: | 2053 | Block Fuel/Init FOB | 76flight_details.php/76 | Flight Fuel | 76 |
| Passengers: | 2 | Cargo: | 10 | Alternate: | SBJD |
| Departure Time: | 1317 | Cruise Speed: | 0120 | Flight Level: | A045 |
| Flight Type: | VFR | Aircraft Type: | C172 | Weight Unit: | Kg |
| Date: | 05/05/2026 | Comments: | GOLD ACARS | Network: | VATSIM |
| Crash: | No | Validator Comments: | Rating | 80 |
| ROUTE | REA |
| REMARKS | OPR/GOLD VIRTUAL AIRLINES PER/A RMK/FROM SBMT RMK/PIC GLD1765 REA/DELTA ECHO LIMA DELTA RMK/EM TREINAMENTO VFR / AREA DE TREINAMENTO SBR-458 |
| Crash | OK | Beacon Lights off with engine on | OK | Speed above 250KIAS below 10.000ft | OK |
| Landing Lights OFF below 10.000ft | OK | Landing Lights ON above 10.000ft | OK | Stall | Fault |
| Overspeed | OK | Pause | OK | Refuel | OK |
| Slew | OK | Taxi Lights OFF during taxi | OK | Land Lights OFF during take off | OK |
| Landing Lights OFF during landing | OK | Landed in not planned airfield | OK | Taxi speed above 25 kt | OK |
| Incorrect QNH during take off | OK | Incorrect QNH during landing | OK |
| Wind: | 90º/7 kt | Heading: | 278 |
| VS: | -349 ft/min | IAS: | 37 kt |
| Gforce: | 1.424 G | Bank: | 0.82 |
| Pitch | 7.53 | Flaps | 100 |
| Nav Lights | ON | Landing Lights | ON |
| Beacon Lights | ON | Strobe Lights | ON |
| DATE | EVENT | IAS | ALTITUDE |
|---|---|---|---|
| 2026-05-05 13:17:00 | GOLD ACARS VERSION 3.3.6.9 | 0 | 0 |
| 2026-05-05 13:17:00 | BOARDING | 0 | 2110 |
| 2026-05-05 13:19:06 | BCN LIGHTS ON | 0 | 2110 |
| 2026-05-05 13:19:08 | BCN LIGHTS OFF | 0 | 2110 |
| 2026-05-05 13:19:26 | BCN LIGHTS ON | 0 | 2110 |
| 2026-05-05 13:19:41 | STARTING ENGINE 1 | 0 | 2110 |
| 2026-05-05 13:20:01 | STB LIGHTS ON | 0 | 2110 |
| 2026-05-05 13:20:04 | TAXI LIGHTS ON | 0 | 2110 |
| 2026-05-05 13:22:17 | TAXI TO THE RWY | 0 | 2135 |
| 2026-05-05 13:25:00 | FLAP 33% | 0 | 2384 |
| 2026-05-05 13:25:20 | FLAP 66% | 0 | 2384 |
| 2026-05-05 13:25:22 | FLAP 100% | 0 | 2384 |
| 2026-05-05 13:25:27 | FLAP 66% | 0 | 2384 |
| 2026-05-05 13:25:28 | FLAP 33% | 0 | 2384 |
| 2026-05-05 13:25:32 | FLAP 0% | 0 | 2384 |
| 2026-05-05 13:32:09 | TAXI LIGHTS OFF | 0 | 2385 |
| 2026-05-05 13:32:16 | TAXI LIGHTS ON | 0 | 2384 |
| 2026-05-05 13:32:18 | LND LIGHTS ON | 0 | 2384 |
| 2026-05-05 13:32:21 | TAXI LIGHTS OFF | 0 | 2384 |
| 2026-05-05 13:32:23 | NAV LIGHTS ON | 0 | 2384 |
| 2026-05-05 13:33:17 | GEAR UP | 67 | 2382 |
| 2026-05-05 13:33:20 | CLIMBING | 70 | 2395 |
| 2026-05-05 13:33:55 | CRUISE | 71 | 2836 |
| 2026-05-05 13:34:00 | CLIMBING | 76 | 2860 |
| 2026-05-05 13:34:24 | CRUISE | 72 | 3243 |
| 2026-05-05 13:34:29 | CLIMBING | 76 | 3272 |
| 2026-05-05 13:35:15 | CRUISE | 82 | 3718 |
| 2026-05-05 13:35:21 | CLIMBING | 86 | 3751 |
| 2026-05-05 13:35:51 | CRUISE | 83 | 4022 |
| 2026-05-05 13:35:57 | CLIMBING | 88 | 4046 |
| 2026-05-05 13:36:04 | CRUISE | 86 | 4141 |
| 2026-05-05 13:36:09 | CLIMBING | 87 | 4168 |
| 2026-05-05 13:36:15 | CRUISE | 82 | 4245 |
| 2026-05-05 13:36:18 | CLIMBING | 85 | 4257 |
| 2026-05-05 13:36:25 | CRUISE | 81 | 4370 |
| 2026-05-05 13:36:37 | CLIMBING | 96 | 4391 |
| 2026-05-05 13:36:47 | CRUISE | 88 | 4512 |
| 2026-05-05 13:37:26 | CLIMBING | 115 | 4464 |
| 2026-05-05 13:37:36 | CRUISE | 105 | 4614 |
| 2026-05-05 13:39:00 | CLIMBING | 106 | 4136 |
| 2026-05-05 13:39:06 | CRUISE | 101 | 4193 |
| 2026-05-05 13:39:14 | CLIMBING | 110 | 4156 |
| 2026-05-05 13:39:27 | CRUISE | 103 | 4317 |
| 2026-05-05 13:39:34 | CLIMBING | 104 | 4318 |
| 2026-05-05 13:39:39 | CRUISE | 107 | 4364 |
| 2026-05-05 13:40:10 | CLIMBING | 106 | 4259 |
| 2026-05-05 13:40:17 | CRUISE | 98 | 4328 |
| 2026-05-05 13:41:04 | CLIMBING | 100 | 4181 |
| 2026-05-05 13:41:08 | CRUISE | 96 | 4214 |
| 2026-05-05 13:41:42 | CLIMBING | 94 | 4224 |
| 2026-05-05 13:41:45 | CRUISE | 93 | 4243 |
| 2026-05-05 13:41:55 | CLIMBING | 96 | 4265 |
| 2026-05-05 13:42:05 | CRUISE | 96 | 4357 |
| 2026-05-05 13:42:29 | CLIMBING | 96 | 4335 |
| 2026-05-05 13:42:37 | CRUISE | 92 | 4384 |
| 2026-05-05 13:42:41 | CLIMBING | 88 | 4405 |
| 2026-05-05 13:42:49 | CRUISE | 85 | 4500 |
| 2026-05-05 13:43:07 | CLIMBING | 91 | 4355 |
| 2026-05-05 13:43:19 | CRUISE | 98 | 4451 |
| 2026-05-05 13:43:49 | CLIMBING | 102 | 4386 |
| 2026-05-05 13:43:59 | CRUISE | 91 | 4499 |
| 2026-05-05 13:44:13 | CLIMBING | 106 | 4462 |
| 2026-05-05 13:44:23 | CRUISE | 99 | 4672 |
| 2026-05-05 13:44:30 | CLIMBING | 114 | 4650 |
| 2026-05-05 13:44:32 | CRUISE | 110 | 4663 |
| 2026-05-05 13:44:56 | LANDING | 112 | 4484 |
| 2026-05-05 13:45:38 | CLIMBING | 106 | 4362 |
| 2026-05-05 13:45:50 | CRUISE | 93 | 4542 |
| 2026-05-05 13:46:20 | CLIMBING | 107 | 4569 |
| 2026-05-05 13:46:33 | CRUISE | 102 | 4780 |
| 2026-05-05 13:46:42 | CLIMBING | 105 | 4752 |
| 2026-05-05 13:46:47 | CRUISE | 98 | 4799 |
| 2026-05-05 13:47:17 | LANDING | 105 | 4663 |
| 2026-05-05 13:47:35 | CLIMBING | 116 | 4594 |
| 2026-05-05 13:47:46 | CRUISE | 103 | 4716 |
| 2026-05-05 13:48:18 | LANDING | 112 | 4498 |
| 2026-05-05 13:48:23 | CLIMBING | 109 | 4508 |
| 2026-05-05 13:48:26 | CRUISE | 105 | 4536 |
| 2026-05-05 13:48:38 | CLIMBING | 111 | 4533 |
| 2026-05-05 13:48:46 | CRUISE | 107 | 4619 |
| 2026-05-05 13:48:57 | LANDING | 107 | 4626 |
| 2026-05-05 13:49:02 | CLIMBING | 113 | 4622 |
| 2026-05-05 13:49:09 | CRUISE | 95 | 4776 |
| 2026-05-05 13:49:57 | CLIMBING | 114 | 4428 |
| 2026-05-05 13:50:11 | CRUISE | 94 | 4680 |
| 2026-05-05 13:50:24 | LANDING | 112 | 4388 |
| 2026-05-05 13:50:29 | CLIMBING | 105 | 4351 |
| 2026-05-05 13:50:38 | CRUISE | 97 | 4552 |
| 2026-05-05 13:50:40 | LANDING | 100 | 4548 |
| 2026-05-05 13:51:03 | CLIMBING | 109 | 4474 |
| 2026-05-05 13:51:08 | CRUISE | 106 | 4542 |
| 2026-05-05 13:51:13 | LANDING | 110 | 4464 |
| 2026-05-05 13:52:11 | CLIMBING | 114 | 4123 |
| 2026-05-05 13:52:27 | CRUISE | 96 | 4410 |
| 2026-05-05 13:52:36 | CLIMBING | 100 | 4382 |
| 2026-05-05 13:52:43 | CRUISE | 98 | 4442 |
| 2026-05-05 13:52:45 | LANDING | 97 | 4440 |
| 2026-05-05 13:52:52 | CLIMBING | 107 | 4394 |
| 2026-05-05 13:52:57 | CRUISE | 103 | 4473 |
| 2026-05-05 13:53:08 | CLIMBING | 119 | 4308 |
| 2026-05-05 13:53:19 | CRUISE | 101 | 4456 |
| 2026-05-05 13:53:44 | CLIMBING | 110 | 4335 |
| 2026-05-05 13:53:49 | CRUISE | 100 | 4387 |
| 2026-05-05 13:53:54 | LANDING | 98 | 4355 |
| 2026-05-05 13:54:08 | CLIMBING | 118 | 4149 |
| 2026-05-05 13:54:27 | CRUISE | 93 | 4560 |
| 2026-05-05 13:54:37 | CLIMBING | 95 | 4562 |
| 2026-05-05 13:54:45 | CRUISE | 93 | 4664 |
| 2026-05-05 13:54:47 | CLIMBING | 101 | 4675 |
| 2026-05-05 13:55:08 | CRUISE | 98 | 5016 |
| 2026-05-05 13:56:23 | CLIMBING | 97 | 4524 |
| 2026-05-05 13:56:26 | CRUISE | 94 | 4560 |
| 2026-05-05 13:56:44 | CLIMBING | 108 | 4300 |
| 2026-05-05 13:57:00 | CRUISE | 99 | 4552 |
| 2026-05-05 13:57:10 | CLIMBING | 89 | 4555 |
| 2026-05-05 13:57:18 | CRUISE | 85 | 4666 |
| 2026-05-05 13:57:36 | LANDING | 100 | 4662 |
| 2026-05-05 13:58:02 | CLIMBING | 124 | 4217 |
| 2026-05-05 13:58:18 | CRUISE | 108 | 4409 |
| 2026-05-05 13:58:29 | CLIMBING | 109 | 4418 |
| 2026-05-05 13:58:49 | CRUISE | 86 | 4673 |
| 2026-05-05 13:59:00 | LANDING | 97 | 4495 |
| 2026-05-05 13:59:22 | CLIMBING | 96 | 4312 |
| 2026-05-05 13:59:35 | CRUISE | 93 | 4501 |
| 2026-05-05 13:59:42 | LANDING | 99 | 4490 |
| 2026-05-05 14:00:28 | CLIMBING | 99 | 4342 |
| 2026-05-05 14:00:33 | CRUISE | 89 | 4399 |
| 2026-05-05 14:00:34 | LANDING | 90 | 4395 |
| 2026-05-05 14:01:12 | CLIMBING | 100 | 4144 |
| 2026-05-05 14:01:21 | CRUISE | 94 | 4242 |
| 2026-05-05 14:01:23 | LANDING | 94 | 4241 |
| 2026-05-05 14:01:34 | CLIMBING | 111 | 4153 |
| 2026-05-05 14:01:41 | CRUISE | 103 | 4226 |
| 2026-05-05 14:01:44 | LANDING | 101 | 4222 |
| 2026-05-05 14:01:56 | CLIMBING | 112 | 4154 |
| 2026-05-05 14:02:11 | CRUISE | 104 | 4361 |
| 2026-05-05 14:02:21 | CLIMBING | 113 | 4357 |
| 2026-05-05 14:02:35 | CRUISE | 108 | 4572 |
| 2026-05-05 14:03:09 | LANDING | 103 | 4409 |
| 2026-05-05 14:03:25 | CLIMBING | 94 | 4395 |
| 2026-05-05 14:03:30 | CRUISE | 87 | 4444 |
| 2026-05-05 14:03:35 | CLIMBING | 95 | 4470 |
| 2026-05-05 14:03:45 | CRUISE | 91 | 4572 |
| 2026-05-05 14:03:51 | LANDING | 101 | 4498 |
| 2026-05-05 14:04:42 | CLIMBING | 102 | 4280 |
| 2026-05-05 14:04:58 | CRUISE | 91 | 4523 |
| 2026-05-05 14:05:07 | CLIMBING | 95 | 4532 |
| 2026-05-05 14:05:14 | CRUISE | 95 | 4636 |
| 2026-05-05 14:05:31 | LANDING | 107 | 4555 |
| 2026-05-05 14:05:37 | CLIMBING | 110 | 4510 |
| 2026-05-05 14:05:56 | CRUISE | 93 | 4916 |
| 2026-05-05 14:06:14 | CLIMBING | 109 | 4746 |
| 2026-05-05 14:06:24 | CRUISE | 100 | 4917 |
| 2026-05-05 14:06:27 | CLIMBING | 103 | 4927 |
| 2026-05-05 14:06:36 | CRUISE | 94 | 5115 |
| 2026-05-05 14:06:47 | CLIMBING | 100 | 5048 |
| 2026-05-05 14:06:53 | CRUISE | 89 | 5135 |
| 2026-05-05 14:07:02 | CLIMBING | 102 | 5090 |
| 2026-05-05 14:07:11 | CRUISE | 94 | 5261 |
| 2026-05-05 14:07:20 | CLIMBING | 108 | 5179 |
| 2026-05-05 14:07:24 | CRUISE | 100 | 5215 |
| 2026-05-05 14:07:55 | CLIMBING | 77 | 4970 |
| 2026-05-05 14:08:00 | CRUISE | 78 | 5027 |
| 2026-05-05 14:08:08 | CLIMBING | 84 | 5008 |
| 2026-05-05 14:08:28 | CRUISE | 96 | 5173 |
| 2026-05-05 14:09:13 | CLIMBING | 104 | 5109 |
| 2026-05-05 14:09:21 | CRUISE | 103 | 5196 |
| 2026-05-05 14:09:30 | CLIMBING | 104 | 5154 |
| 2026-05-05 14:09:40 | STALL | 54 | 5549 |
| 2026-05-05 14:09:45 | RECOVER FROM STALL | 26 | 5771 |
| 2026-05-05 14:09:45 | CRUISE | 28 | 5775 |
| 2026-05-05 14:09:46 | DESCEND | 31 | 5774 |
| 2026-05-05 14:09:47 | STALL | 40 | 5745 |
| 2026-05-05 14:09:48 | RECOVER FROM STALL | 55 | 5692 |
| 2026-05-05 14:09:49 | STALL | 61 | 5662 |
| 2026-05-05 14:09:51 | RECOVER FROM STALL | 79 | 5508 |
| 2026-05-05 14:10:25 | CLIMBING | 87 | 5431 |
| 2026-05-05 14:10:32 | STALL | 56 | 5618 |
| 2026-05-05 14:10:36 | CRUISE | 29 | 5711 |
| 2026-05-05 14:10:36 | RECOVER FROM STALL | 29 | 5711 |
| 2026-05-05 14:10:40 | STALL | 74 | 5544 |
| 2026-05-05 14:10:42 | RECOVER FROM STALL | 87 | 5390 |
| 2026-05-05 14:10:43 | STALL | 85 | 5325 |
| 2026-05-05 14:10:44 | RECOVER FROM STALL | 88 | 5315 |
| 2026-05-05 14:10:45 | CLIMBING | 90 | 5315 |
| 2026-05-05 14:10:54 | CRUISE | 86 | 5431 |
| 2026-05-05 14:10:58 | CLIMBING | 95 | 5441 |
| 2026-05-05 14:11:00 | CRUISE | 95 | 5459 |
| 2026-05-05 14:11:23 | CLIMBING | 106 | 5367 |
| 2026-05-05 14:11:28 | CRUISE | 104 | 5421 |
| 2026-05-05 14:12:00 | CLIMBING | 106 | 5026 |
| 2026-05-05 14:12:10 | CRUISE | 91 | 5141 |
| 2026-05-05 14:12:14 | CLIMBING | 82 | 5160 |
| 2026-05-05 14:12:19 | STALL | 61 | 5251 |
| 2026-05-05 14:12:23 | CRUISE | 36 | 5358 |
| 2026-05-05 14:12:23 | RECOVER FROM STALL | 36 | 5358 |
| 2026-05-05 14:12:26 | STALL | 55 | 5287 |
| 2026-05-05 14:12:30 | RECOVER FROM STALL | 85 | 5109 |
| 2026-05-05 14:12:31 | CLIMBING | 87 | 5110 |
| 2026-05-05 14:12:37 | CRUISE | 84 | 5186 |
| 2026-05-05 14:12:58 | CLIMBING | 76 | 5265 |
| 2026-05-05 14:13:01 | STALL | 69 | 5349 |
| 2026-05-05 14:13:08 | CRUISE | 19 | 5638 |
| 2026-05-05 14:13:08 | RECOVER FROM STALL | 19 | 5638 |
| 2026-05-05 14:13:10 | STALL | 41 | 5576 |
| 2026-05-05 14:13:16 | RECOVER FROM STALL | 85 | 5168 |
| 2026-05-05 14:13:17 | CLIMBING | 84 | 5171 |
| 2026-05-05 14:13:22 | CRUISE | 79 | 5243 |
| 2026-05-05 14:13:37 | CLIMBING | 84 | 5270 |
| 2026-05-05 14:13:40 | STALL | 65 | 5336 |
| 2026-05-05 14:13:45 | CRUISE | 31 | 5503 |
| 2026-05-05 14:13:46 | RECOVER FROM STALL | 32 | 5503 |
| 2026-05-05 14:13:48 | STALL | 48 | 5424 |
| 2026-05-05 14:13:54 | RECOVER FROM STALL | 92 | 4838 |
| 2026-05-05 14:13:58 | CLIMBING | 103 | 4741 |
| 2026-05-05 14:14:07 | CRUISE | 86 | 4921 |
| 2026-05-05 14:14:16 | CLIMBING | 93 | 4946 |
| 2026-05-05 14:14:31 | STALL | 64 | 5238 |
| 2026-05-05 14:14:35 | RECOVER FROM STALL | 35 | 5345 |
| 2026-05-05 14:14:36 | CRUISE | 36 | 5352 |
| 2026-05-05 14:14:38 | STALL | 55 | 5276 |
| 2026-05-05 14:14:42 | RECOVER FROM STALL | 74 | 5068 |
| 2026-05-05 14:14:50 | CLIMBING | 81 | 5082 |
| 2026-05-05 14:15:01 | CRUISE | 75 | 5201 |
| 2026-05-05 14:15:45 | STALL | 81 | 4708 |
| 2026-05-05 14:15:46 | RECOVER FROM STALL | 79 | 4698 |
| 2026-05-05 14:15:49 | CLIMBING | 91 | 4691 |
| 2026-05-05 14:15:52 | CRUISE | 76 | 4714 |
| 2026-05-05 14:16:11 | STALL | 71 | 4586 |
| 2026-05-05 14:16:12 | RECOVER FROM STALL | 74 | 4576 |
| 2026-05-05 14:16:27 | STALL | 71 | 4547 |
| 2026-05-05 14:16:28 | RECOVER FROM STALL | 69 | 4538 |
| 2026-05-05 14:16:34 | LANDING | 69 | 4465 |
| 2026-05-05 14:16:52 | FLAP 33% | 80 | 4093 |
| 2026-05-05 14:17:18 | FLAP 66% | 69 | 3582 |
| 2026-05-05 14:17:40 | CLIMBING | 81 | 2899 |
| 2026-05-05 14:17:47 | FLAP 33% | 61 | 3102 |
| 2026-05-05 14:17:52 | FLAP 0% | 62 | 3183 |
| 2026-05-05 14:18:05 | CRUISE | 68 | 3342 |
| 2026-05-05 14:18:08 | LANDING | 73 | 3339 |
| 2026-05-05 14:18:16 | CLIMBING | 85 | 3312 |
| 2026-05-05 14:19:32 | CRUISE | 76 | 4425 |
| 2026-05-05 14:20:13 | LANDING | 104 | 4241 |
| 2026-05-05 14:20:50 | CLIMBING | 102 | 4095 |
| 2026-05-05 14:20:56 | CRUISE | 87 | 4175 |
| 2026-05-05 14:20:57 | LANDING | 91 | 4171 |
| 2026-05-05 14:21:06 | CLIMBING | 97 | 4054 |
| 2026-05-05 14:21:12 | CRUISE | 86 | 4120 |
| 2026-05-05 14:21:26 | CLIMBING | 87 | 4143 |
| 2026-05-05 14:21:33 | CRUISE | 83 | 4216 |
| 2026-05-05 14:21:52 | CLIMBING | 94 | 4251 |
| 2026-05-05 14:21:59 | CRUISE | 85 | 4321 |
| 2026-05-05 14:22:26 | LANDING | 94 | 4267 |
| 2026-05-05 14:22:58 | CLIMBING | 101 | 4160 |
| 2026-05-05 14:23:06 | CRUISE | 99 | 4243 |
| 2026-05-05 14:23:11 | LANDING | 105 | 4197 |
| 2026-05-05 14:23:17 | CLIMBING | 110 | 4081 |
| 2026-05-05 14:23:22 | CRUISE | 103 | 4147 |
| 2026-05-05 14:23:23 | LANDING | 104 | 4144 |
| 2026-05-05 14:23:30 | CLIMBING | 109 | 4082 |
| 2026-05-05 14:23:37 | CRUISE | 94 | 4245 |
| 2026-05-05 14:23:47 | LANDING | 96 | 4242 |
| 2026-05-05 14:24:37 | CLIMBING | 105 | 4094 |
| 2026-05-05 14:24:42 | CRUISE | 102 | 4135 |
| 2026-05-05 14:24:48 | CLIMBING | 104 | 4144 |
| 2026-05-05 14:24:56 | CRUISE | 97 | 4251 |
| 2026-05-05 14:25:21 | CLIMBING | 87 | 4281 |
| 2026-05-05 14:25:27 | CRUISE | 83 | 4361 |
| 2026-05-05 14:25:38 | CLIMBING | 97 | 4295 |
| 2026-05-05 14:25:45 | CRUISE | 95 | 4388 |
| 2026-05-05 14:25:56 | CLIMBING | 97 | 4388 |
| 2026-05-05 14:26:01 | CRUISE | 94 | 4445 |
| 2026-05-05 14:26:02 | CLIMBING | 96 | 4454 |
| 2026-05-05 14:26:12 | CRUISE | 74 | 4757 |
| 2026-05-05 14:26:25 | CLIMBING | 89 | 4690 |
| 2026-05-05 14:26:30 | CRUISE | 82 | 4753 |
| 2026-05-05 14:26:48 | LANDING | 107 | 4556 |
| 2026-05-05 14:27:10 | CLIMBING | 102 | 4324 |
| 2026-05-05 14:27:12 | CRUISE | 100 | 4338 |
| 2026-05-05 14:27:28 | LANDING | 98 | 4308 |
| 2026-05-05 14:27:57 | CLIMBING | 89 | 4249 |
| 2026-05-05 14:27:59 | CRUISE | 88 | 4260 |
| 2026-05-05 14:29:23 | CLIMBING | 96 | 4342 |
| 2026-05-05 14:29:29 | CRUISE | 94 | 4387 |
| 2026-05-05 14:30:35 | LANDING | 94 | 4215 |
| 2026-05-05 14:35:31 | FLAP 33% | 81 | 3264 |
| 2026-05-05 14:37:43 | CLIMBING | 73 | 2845 |
| 2026-05-05 14:37:50 | CRUISE | 77 | 2924 |
| 2026-05-05 14:37:57 | FLAP 66% | 82 | 2973 |
| 2026-05-05 14:38:02 | LANDING | 82 | 2978 |
| 2026-05-05 14:38:11 | FLAP 100% | 74 | 2931 |
| 2026-05-05 14:38:53 | STALL | 50 | 2399 |
| 2026-05-05 14:38:53 | RECOVER FROM STALL | 46 | 2397 |
| 2026-05-05 14:38:56 | STALL | 40 | 2395 |
| 2026-05-05 14:38:59 | LANDED AIRPORT [SBMT] | 38 | 2392 |
| 2026-05-05 14:38:59 | LANDED - VS: -349 ft/min | 37 | 2388 |
| 2026-05-05 14:38:59 | RECOVER FROM STALL | 37 | 2388 |
| 2026-05-05 14:39:03 | TAXI TO THE GATE | 27 | 2382 |
| 2026-05-05 14:40:16 | LND LIGHTS OFF | 0 | 2382 |
| 2026-05-05 14:40:25 | NAV LIGHTS OFF | 0 | 2382 |
| 2026-05-05 14:40:27 | TAXI LIGHTS ON | 0 | 2382 |
| 2026-05-05 14:44:27 | STB LIGHTS OFF | 0 | 2383 |
| 2026-05-05 14:44:28 | TAXI LIGHTS OFF | 0 | 2383 |
| 2026-05-05 14:44:32 | STOPPING ENGINE 1 | 0 | 2383 |
| 2026-05-05 14:44:48 | BCN LIGHTS OFF | 0 | 2383 |
| 2026-05-05 14:45:28 | FLIGHT FINISHED | 0 | 2383 |
| DATE | IAS | GS | ALTITUDE | FUEL USED | OAT | Flight Phase |
|---|---|---|---|---|---|---|
| 2026-05-05 13:18:57 | 0 | 0 | 2110 | 0 | 26 | BOARDING |
| 2026-05-05 13:19:57 | 0 | 0 | 2110 | 0 | 26 | BOARDING |
| 2026-05-05 13:20:57 | 0 | 0 | 2110 | 0 | 26 | BOARDING |
| 2026-05-05 13:21:58 | 0 | 0 | 2110 | 0 | 26 | BOARDING |
| 2026-05-05 13:22:58 | 0 | 12 | 2137 | 0 | 28 | BOARDING |
| 2026-05-05 13:23:58 | 1 | 10 | 2137 | 0 | 28 | TAXI TO THE RWY |
| 2026-05-05 13:24:58 | 0 | 0 | 2384 | 0 | 28 | TAXI TO THE RWY |
| 2026-05-05 13:25:58 | 0 | 0 | 2384 | 0 | 28 | TAXI TO THE RWY |
| 2026-05-05 13:26:59 | 0 | 0 | 2384 | 0 | 28 | TAXI TO THE RWY |
| 2026-05-05 13:27:59 | 0 | 0 | 2384 | 0 | 28 | TAXI TO THE RWY |
| 2026-05-05 13:28:59 | 0 | 0 | 2384 | 0 | 28 | TAXI TO THE RWY |
| 2026-05-05 13:29:59 | 0 | 0 | 2384 | 0 | 28 | TAXI TO THE RWY |
| 2026-05-05 13:30:59 | 0 | 0 | 2384 | 0 | 28 | TAXI TO THE RWY |
| 2026-05-05 13:31:59 | 0 | 13 | 2385 | 0 | 27 | TAXI TO THE RWY |
| 2026-05-05 13:32:59 | 27 | 46 | 2383 | 0 | 28 | TAXI TO THE RWY |
| 2026-05-05 13:34:00 | 77 | 94 | 2860 | 0 | 26 | TAXI TO THE RWY |
| 2026-05-05 13:35:00 | 80 | 89 | 3575 | 0 | 21 | CLIMBING |
| 2026-05-05 13:36:00 | 87 | 94 | 4077 | 0 | 20 | CLIMBING |
| 2026-05-05 13:37:00 | 101 | 108 | 4517 | 0 | 18 | CLIMBING |
| 2026-05-05 13:38:00 | 121 | 127 | 4357 | 0 | 19 | CRUISE |
| 2026-05-05 13:39:01 | 105 | 112 | 4142 | 0 | 19 | CRUISE |
| 2026-05-05 13:40:01 | 112 | 118 | 4231 | 0 | 19 | CLIMBING |
| 2026-05-05 13:41:01 | 95 | 105 | 4174 | 0 | 20 | CRUISE |
| 2026-05-05 13:42:01 | 94 | 101 | 4328 | 0 | 19 | CRUISE |
| 2026-05-05 13:43:01 | 98 | 111 | 4358 | 0 | 19 | CLIMBING |
| 2026-05-05 13:44:01 | 92 | 108 | 4499 | 0 | 18 | CRUISE |
| 2026-05-05 13:45:02 | 106 | 113 | 4491 | 0 | 18 | CRUISE |
| 2026-05-05 13:46:03 | 95 | 110 | 4543 | 0 | 18 | LANDING |
| 2026-05-05 13:47:03 | 110 | 128 | 4684 | 0 | 18 | CRUISE |
| 2026-05-05 13:48:03 | 112 | 114 | 4730 | 0 | 18 | CRUISE |
| 2026-05-05 13:49:03 | 112 | 112 | 4641 | 0 | 18 | CRUISE |
| 2026-05-05 13:50:03 | 105 | 121 | 4514 | 0 | 18 | CLIMBING |
| 2026-05-05 13:51:04 | 109 | 119 | 4479 | 0 | 18 | CLIMBING |
| 2026-05-05 13:52:04 | 116 | 131 | 4190 | 0 | 19 | CLIMBING |
| 2026-05-05 13:53:04 | 118 | 122 | 4331 | 0 | 19 | LANDING |
| 2026-05-05 13:54:04 | 111 | 129 | 4197 | 0 | 19 | CRUISE |
| 2026-05-05 13:55:04 | 95 | 115 | 4960 | 0 | 17 | LANDING |
| 2026-05-05 13:56:05 | 110 | 114 | 4512 | 0 | 18 | CLIMBING |
| 2026-05-05 13:57:05 | 98 | 115 | 4551 | 0 | 18 | CRUISE |
| 2026-05-05 13:58:05 | 116 | 118 | 4259 | 0 | 19 | CRUISE |
| 2026-05-05 13:59:05 | 100 | 114 | 4427 | 0 | 18 | CLIMBING |
| 2026-05-05 14:00:05 | 99 | 117 | 4481 | 0 | 18 | LANDING |
| 2026-05-05 14:01:05 | 96 | 105 | 4131 | 0 | 19 | LANDING |
| 2026-05-05 14:02:06 | 104 | 110 | 4305 | 0 | 19 | LANDING |
| 2026-05-05 14:03:06 | 104 | 109 | 4418 | 0 | 18 | CLIMBING |
| 2026-05-05 14:04:06 | 109 | 124 | 4375 | 0 | 19 | CRUISE |
| 2026-05-05 14:05:06 | 92 | 114 | 4526 | 0 | 18 | LANDING |
| 2026-05-05 14:06:06 | 107 | 127 | 4828 | 0 | 17 | CRUISE |
| 2026-05-05 14:07:06 | 99 | 123 | 5172 | 0 | 16 | CRUISE |
| 2026-05-05 14:08:06 | 85 | 109 | 5002 | 0 | 17 | CLIMBING |
| 2026-05-05 14:09:07 | 109 | 111 | 5068 | 0 | 16 | CRUISE |
| 2026-05-05 14:10:07 | 91 | 93 | 5455 | 0 | 16 | CRUISE |
| 2026-05-05 14:11:07 | 97 | 98 | 5415 | 0 | 16 | DESCEND |
| 2026-05-05 14:12:07 | 95 | 102 | 5124 | 0 | 16 | CRUISE |
| 2026-05-05 14:13:07 | 19 | 27 | 5626 | 0 | 15 | CLIMBING |
| 2026-05-05 14:14:08 | 88 | 99 | 4923 | 0 | 17 | CLIMBING |
| 2026-05-05 14:15:08 | 73 | 84 | 5187 | 0 | 17 | CRUISE |
| 2026-05-05 14:16:09 | 65 | 83 | 4639 | 0 | 18 | CRUISE |
| 2026-05-05 14:17:09 | 73 | 93 | 3841 | 0 | 22 | CRUISE |
| 2026-05-05 14:18:09 | 76 | 89 | 3332 | 0 | 25 | LANDING |
| 2026-05-05 14:19:09 | 83 | 88 | 4095 | 0 | 20 | LANDING |
| 2026-05-05 14:20:09 | 101 | 108 | 4295 | 0 | 19 | CLIMBING |
| 2026-05-05 14:21:10 | 90 | 99 | 4096 | 0 | 20 | CRUISE |
| 2026-05-05 14:22:10 | 93 | 105 | 4296 | 0 | 19 | CLIMBING |
| 2026-05-05 14:23:10 | 104 | 115 | 4214 | 0 | 20 | CRUISE |
| 2026-05-05 14:24:10 | 99 | 113 | 4199 | 0 | 20 | CRUISE |
| 2026-05-05 14:25:10 | 88 | 105 | 4269 | 0 | 20 | LANDING |
| 2026-05-05 14:26:11 | 74 | 91 | 4744 | 0 | 18 | CRUISE |
| 2026-05-05 14:27:11 | 102 | 117 | 4329 | 0 | 19 | CLIMBING |
| 2026-05-05 14:28:11 | 85 | 101 | 4274 | 0 | 20 | CLIMBING |
| 2026-05-05 14:29:11 | 96 | 111 | 4347 | 0 | 19 | CRUISE |
| 2026-05-05 14:30:11 | 101 | 115 | 4268 | 0 | 20 | CRUISE |
| 2026-05-05 14:31:11 | 86 | 100 | 4133 | 0 | 20 | CRUISE |
| 2026-05-05 14:32:11 | 97 | 110 | 3926 | 0 | 21 | LANDING |
| 2026-05-05 14:33:12 | 90 | 101 | 3651 | 0 | 21 | LANDING |
| 2026-05-05 14:34:12 | 87 | 98 | 3567 | 0 | 22 | LANDING |
| 2026-05-05 14:35:12 | 94 | 103 | 3334 | 0 | 23 | LANDING |
| 2026-05-05 14:36:12 | 71 | 81 | 3151 | 0 | 25 | LANDING |
| 2026-05-05 14:37:12 | 57 | 71 | 2989 | 0 | 26 | LANDING |
| 2026-05-05 14:38:12 | 74 | 87 | 2924 | 0 | 26 | LANDING |
| 2026-05-05 14:39:13 | 9 | 29 | 2383 | 0 | 28 | LANDING |
| 2026-05-05 14:40:13 | 0 | 0 | 2382 | 0 | 27 | TAXI TO THE GATE |
| 2026-05-05 14:41:13 | 12 | 21 | 2382 | 0 | 27 | TAXI TO THE GATE |
| 2026-05-05 14:42:13 | 5 | 15 | 2382 | 0 | 28 | TAXI TO THE GATE |
| 2026-05-05 14:43:13 | 0 | 1 | 2383 | 0 | 27 | TAXI TO THE GATE |
| 2026-05-05 14:44:13 | 0 | 5 | 2383 | 0 | 28 | TAXI TO THE GATE |
| 2026-05-05 14:45:13 | 0 | 0 | 2383 | 0 | 28 | TAXI TO THE GATE |